Time;durP1;ratioP1;P1;durP2;ratioP2;P2;SDS_P1;SDS_P2;PMS_P1;PMS_P2;Temp;Humidity;BMP_temperature;BMP_pressure;BME280_temperature;BME280_humidity;BME280_pressure;Samples;Min_cycle;Max_cycle;Signal;HPM_P1;HPM_P2
2021/01/31 00:00:34;;;;;;;11.27;9.73;;;;;;;;;;15471993;28;20193;-83
2021/01/31 00:08:09;;;;;;;11.87;9.93;;;;;;;;;;15473833;28;20232;-84
2021/01/31 00:15:36;;;;;;;12.00;9.47;;;;;;;;;;15491160;28;20303;-82
2021/01/31 00:23:05;;;;;;;11.20;9.80;;;;;;;;;;15456248;28;20212;-82
2021/01/31 00:30:35;;;;;;;12.80;10.33;;;8.30;62.80;;;;;;15488964;28;20631;-79
2021/01/31 00:38:01;;;;;;;12.23;10.20;;;;;;;;;;15488993;28;20613;-80
2021/01/31 00:45:28;;;;;;;13.53;10.03;;;;;;;;;;15488839;28;20220;-87
2021/01/31 00:52:57;;;;;;;12.70;11.20;;;;;;;;;;15488538;28;20196;-85
2021/01/31 01:00:26;;;;;;;14.53;11.90;;;;;;;;;;15470502;28;20197;-83
2021/01/31 01:07:53;;;;;;;13.90;10.77;;;;;;;;;;15455840;28;20467;-83
2021/01/31 01:15:24;;;;;;;15.03;11.93;;;5.80;62.40;;;;;;15468383;28;20300;-83
2021/01/31 01:22:53;;;;;;;16.07;11.37;;;;;;;;;;15465546;28;20236;-84
2021/01/31 01:30:24;;;;;;;13.83;11.33;;;5.50;62.50;;;;;;15467076;28;20283;-82
2021/01/31 01:37:54;;;;;;;14.83;12.90;;;8.60;63.90;;;;;;15466740;28;20695;-82
2021/01/31 01:45:25;;;;;;;23.57;19.37;;;;;;;;;;15465369;28;20231;-82
2021/01/31 01:53:08;;;;;;;25.60;21.10;;;;;;;;;;15485230;28;20243;-82
2021/01/31 02:00:37;;;;;;;27.50;22.13;;;;;;;;;;15483727;28;20181;-82
2021/01/31 02:08:05;;;;;;;28.43;23.13;;;;;;;;;;15482635;28;20228;-83
2021/01/31 02:15:32;;;;;;;28.43;22.20;;;;;;;;;;15481854;28;20217;-73
2021/01/31 02:23:12;;;;;;;28.27;23.37;;;;;;;;;;15483999;28;20212;-72
2021/01/31 02:31:10;;;;;;;25.70;19.97;;;5.70;67.40;;;;;;15465805;28;20180;-73
2021/01/31 02:38:45;;;;;;;20.07;16.70;;;6.40;68.40;;;;;;15483942;28;20216;-73
2021/01/31 02:46:18;;;;;;;20.90;16.33;;;6.30;68.00;;;;;;15482277;28;20223;-72
2021/01/31 02:53:56;;;;;;;19.33;15.87;;;6.40;67.70;;;;;;15482415;28;20554;-73
2021/01/31 03:01:28;;;;;;;19.50;16.87;;;6.00;67.50;;;;;;15484149;28;20593;-73
2021/01/31 03:08:58;;;;;;;19.37;16.27;;;;;;;;;;15476722;28;20602;-73
2021/01/31 03:16:34;;;;;;;18.93;15.43;;;5.40;66.50;;;;;;15475234;28;20216;-73
2021/01/31 03:24:09;;;;;;;18.13;14.50;;;5.50;66.00;;;;;;15491688;28;20650;-73
2021/01/31 03:31:42;;;;;;;17.93;15.43;;;6.50;66.60;;;;;;15492877;28;20222;-74
2021/01/31 03:39:14;;;;;;;17.67;13.00;;;6.50;66.30;;;;;;15493057;28;20690;-74
2021/01/31 03:46:47;;;;;;;14.67;12.07;;;6.10;66.00;;;;;;15491498;28;20228;-73
2021/01/31 03:54:15;;;;;;;16.50;13.03;;;;;;;;;;15473807;28;20234;-73
2021/01/31 04:01:42;;;;;;;18.67;14.17;;;;;;;;;;15491909;28;20208;-73
2021/01/31 04:09:12;;;;;;;16.93;13.70;;;5.40;65.70;;;;;;15490818;28;20759;-73
2021/01/31 04:16:44;;;;;;;21.57;16.10;;;6.10;66.00;;;;;;15490315;28;20220;-73
2021/01/31 04:24:11;;;;;;;17.90;14.33;;;;;;;;;;15489948;28;20218;-73
2021/01/31 04:31:37;;;;;;;19.67;15.60;;;;;;;;;;15490383;28;20279;-73
2021/01/31 04:39:07;;;;;;;21.47;16.50;;;;;;;;;;15490956;28;20185;-74
2021/01/31 04:46:42;;;;;;;21.03;16.60;;;5.40;67.20;;;;;;15488653;28;20309;-73
2021/01/31 04:54:31;;;;;;;20.87;17.33;;;6.00;67.70;;;;;;15487992;28;20184;-73
2021/01/31 05:02:02;;;;;;;22.13;18.00;;;;;;;;;;15489186;28;20208;-73
2021/01/31 05:09:30;;;;;;;22.77;19.63;;;;;;;;;;15487480;28;20240;-73
2021/01/31 05:16:57;;;;;;;24.07;19.00;;;;;;;;;;15468397;28;20267;-73
2021/01/31 05:24:25;;;;;;;23.97;19.33;;;;;;;;;;15467501;28;20220;-74
2021/01/31 05:31:56;;;;;;;24.07;20.07;;;5.90;70.90;;;;;;15486439;28;20260;-73
2021/01/31 05:39:43;;;;;;;24.30;20.53;;;5.00;70.50;;;;;;15485008;28;20187;-73
2021/01/31 05:47:22;;;;;;;24.77;20.13;;;5.30;71.20;;;;;;15450223;28;20236;-73
2021/01/31 05:54:49;;;;;;;25.20;20.10;;;;;;;;;;15450566;28;20208;-74
2021/01/31 06:02:22;;;;;;;21.83;18.33;;;;;;;;;;15464341;28;20781;-73
2021/01/31 06:09:49;;;;;;;23.03;17.77;;;;;;;;;;15464398;28;20219;-73
2021/01/31 06:17:21;;;;;;;23.33;18.77;;;;;;;;;;15465892;28;20308;-74
2021/01/31 06:24:51;;;;;;;19.43;16.97;;;;;;;;;;15465801;28;20612;-73
2021/01/31 06:32:18;;;;;;;21.20;15.37;;;;;;;;;;15482816;28;20227;-74
2021/01/31 06:39:56;;;;;;;21.67;15.03;;;3.50;69.80;;;;;;15478880;28;20287;-72
2021/01/31 06:47:45;;;;;;;17.60;14.83;;;3.60;69.60;;;;;;15503063;28;20232;-74
2021/01/31 06:55:45;;;;;;;19.10;15.23;;;3.40;69.30;;;;;;15485733;28;20193;-74
2021/01/31 07:03:34;;;;;;;18.77;14.73;;;3.70;69.40;;;;;;15502022;28;20216;-73
2021/01/31 07:11:14;;;;;;;16.00;13.40;;;4.20;69.60;;;;;;15503101;28;20243;-74
2021/01/31 07:18:48;;;;;;;17.03;13.23;;;5.70;71.10;;;;;;15483656;28;20220;-74
2021/01/31 07:26:26;;;;;;;14.77;12.43;;;;;;;;;;15483726;28;20235;-73
2021/01/31 07:33:57;;;;;;;13.93;11.57;;;;;;;;;;15484783;28;20244;-73
2021/01/31 07:41:26;;;;;;;13.77;11.13;;;6.20;71.40;;;;;;15501032;28;20631;-72
2021/01/31 07:49:02;;;;;;;12.90;10.73;;;;;;;;;;15496095;28;20222;-75
2021/01/31 07:56:34;;;;;;;13.83;10.57;;;3.40;68.90;;;;;;15456552;28;20208;-73
2021/01/31 08:04:45;;;;;;;14.57;12.07;;;5.30;69.20;;;;;;15470734;28;20212;-74
2021/01/31 08:12:14;;;;;;;14.23;10.27;;;6.00;69.40;;;;;;15473066;28;20597;-73
2021/01/31 08:19:42;;;;;;;15.57;10.83;;;;;;;;;;15489072;28;20274;-72
2021/01/31 08:27:13;;;;;;;12.73;10.50;;;5.40;68.50;;;;;;15470568;28;20275;-74
2021/01/31 08:35:24;;;;;;;13.07;10.17;;;4.30;66.20;;;;;;15489619;28;20233;-74
2021/01/31 08:43:01;;;;;;;15.37;10.47;;;5.80;67.30;;;;;;15489260;28;20204;-74
2021/01/31 08:50:28;;;;;;;13.60;10.70;;;;;;;;;;15471447;28;20224;-73
2021/01/31 08:58:01;;;;;;;13.47;9.57;;;4.00;64.30;;;;;;15487202;28;20654;-73
2021/01/31 09:05:29;;;;;;;15.37;10.70;;;;;;;;;;15487533;28;20740;-74
2021/01/31 09:13:23;;;;;;;13.60;10.53;;;;;;;;;;15471572;28;20204;-74
2021/01/31 09:20:52;;;;;;;13.27;10.20;;;5.60;66.00;;;;;;15441163;28;20225;-74
2021/01/31 09:28:21;;;;;;;10.40;7.83;;;;;;;;;;15467643;28;20197;-73
2021/01/31 09:35:48;;;;;;;9.47;7.30;;;;;;;;;;15467867;28;20332;-74
2021/01/31 09:43:19;;;;;;;9.73;7.90;;;5.70;63.10;;;;;;15485945;28;20223;-74
2021/01/31 09:50:53;;;;;;;10.67;7.70;;;6.40;62.40;;;;;;15485800;28;20586;-73
2021/01/31 09:58:23;;;;;;;10.27;7.97;;;6.30;62.00;;;;;;15481736;28;20222;-75
2021/01/31 10:06:02;;;;;;;10.10;8.10;;;;;;;;;;15484867;28;20204;-73
2021/01/31 10:13:44;;;;;;;10.13;8.27;;;;;;;;;;15466574;28;20185;-73
2021/01/31 10:21:25;;;;;;;10.43;8.53;;;6.90;59.80;;;;;;15450795;28;20223;-73
2021/01/31 10:28:56;;;;;;;12.10;9.47;;;;;;;;;;15464066;28;20216;-75
2021/01/31 10:36:28;;;;;;;11.27;8.87;;;6.40;58.60;;;;;;15482736;28;20229;-74
2021/01/31 10:44:03;;;;;;;12.70;9.77;;;7.40;58.40;;;;;;15466451;28;20755;-79
2021/01/31 10:51:32;;;;;;;14.60;9.57;;;;;;;;;;15466266;28;20232;-83
2021/01/31 10:59:01;;;;;;;12.33;9.17;;;;;;;;;;15450019;28;20324;-82
2021/01/31 11:06:29;;;;;;;10.23;7.93;;;;;;;;;;15448980;28;20342;-82
2021/01/31 11:13:57;;;;;;;12.00;8.60;;;;;;;;;;15466251;28;20639;-83
2021/01/31 11:21:27;;;;;;;19.87;8.77;;;6.50;57.60;;;;;;15449061;28;20219;-83
2021/01/31 11:28:54;;;;;;;10.93;8.23;;;;;;;;;;15493054;28;20215;-82
2021/01/31 11:36:20;;;;;;;11.77;8.43;;;;;;;;;;15494767;28;20291;-85
2021/01/31 11:43:48;;;;;;;10.93;8.93;;;;;;;;;;15463227;28;20304;-83
2021/01/31 11:51:15;;;;;;;14.33;9.43;;;;;;;;;;15476667;28;20272;-83
2021/01/31 11:58:43;;;;;;;13.53;9.53;;;;;;;;;;15459636;28;20262;-85
2021/01/31 12:06:15;;;;;;;15.47;9.63;;;;;;;;;;15472989;28;20656;-84
2021/01/31 12:13:42;;;;;;;12.40;10.23;;;;;;;;;;15532174;28;20187;-84
2021/01/31 12:21:10;;;;;;;15.70;10.93;;;;;;;;;;15536720;28;20250;-85
2021/01/31 12:28:40;;;;;;;16.63;11.73;;;;;;;;;;15517545;28;20283;-86
2021/01/31 12:36:08;;;;;;;17.37;13.50;;;;;;;;;;15537064;28;20600;-87
2021/01/31 12:43:35;;;;;;;18.93;14.30;;;;;;;;;;15520597;28;20216;-85
2021/01/31 12:51:27;;;;;;;21.33;15.00;;;;;;;;;;15551035;28;20243;-84
2021/01/31 12:58:54;;;;;;;18.73;14.03;;;;;;;;;;15532773;28;20274;-84
2021/01/31 13:06:21;;;;;;;19.00;14.37;;;;;;;;;;15550560;28;20215;-84
2021/01/31 13:13:50;;;;;;;16.20;13.67;;;;;;;;;;15548816;28;20553;-82
2021/01/31 13:21:18;;;;;;;17.97;15.20;;;;;;;;;;15528558;28;20264;-81
2021/01/31 13:28:47;;;;;;;38.90;17.07;;;;;;;;;;15529468;28;20687;-82
2021/01/31 13:36:20;;;;;;;18.20;14.50;;;;;;;;;;15530305;28;20306;-81
2021/01/31 13:43:49;;;;;;;27.33;15.23;;;;;;;;;;15545989;28;20236;-83
2021/01/31 13:51:16;;;;;;;16.50;12.80;;;;;;;;;;15531917;28;20223;-85
2021/01/31 13:58:47;;;;;;;17.27;12.67;;;;;;;;;;15529351;28;20187;-83
2021/01/31 14:06:13;;;;;;;17.93;12.53;;;;;;;;;;15510251;28;20215;-83
2021/01/31 14:13:43;;;;;;;13.97;12.27;;;;;;;;;;15529064;28;20228;-81
2021/01/31 14:21:13;;;;;;;19.07;12.00;;;;;;;;;;15526627;28;20212;-80
2021/01/31 14:28:41;;;;;;;15.73;12.43;;;;;;;;;;15526660;28;20204;-80
2021/01/31 14:36:12;;;;;;;16.07;12.30;;;;;;;;;;15526732;28;20227;-81
2021/01/31 14:43:43;;;;;;;15.73;10.30;;;;;;;;;;15526151;28;20183;-80
2021/01/31 14:51:35;;;;;;;12.60;9.70;;;;;;;;;;15528125;28;20220;-80
2021/01/31 14:59:37;;;;;;;13.93;9.77;;;;;;;;;;15536142;28;20191;-80
2021/01/31 15:07:36;;;;;;;12.57;9.40;;;;;;;;;;15465678;28;20369;-82
2021/01/31 15:15:10;;;;;;;14.23;10.27;;;7.50;55.60;;;;;;15522792;28;20231;-81
2021/01/31 15:22:39;;;;;;;17.43;11.90;;;;;;;;;;15562632;28;20183;-87
2021/01/31 15:30:13;;;;;;;15.00;11.63;;;;;;;;;;15573148;28;20308;-84
2021/01/31 15:37:44;;;;;;;21.37;13.10;;;;;;;;;;15492130;28;20233;-81
2021/01/31 15:45:18;;;;;;;18.57;12.47;;;;;;;;;;15490054;28;20272;-81
2021/01/31 15:52:48;;;;;;;18.30;12.63;;;;;;;;;;15492194;28;20191;-81
2021/01/31 16:00:21;;;;;;;37.63;14.50;;;8.00;56.60;;;;;;15474571;28;20215;-81
2021/01/31 16:07:48;;;;;;;17.50;12.13;;;;;;;;;;15489985;28;20229;-84
2021/01/31 16:15:16;;;;;;;18.63;13.03;;;;;;;;;;15474979;28;20229;-81
2021/01/31 16:22:45;;;;;;;20.53;13.03;;;;;;;;;;15488413;28;20173;-83
2021/01/31 16:30:17;;;;;;;18.87;14.47;;;;;;;;;;15470877;28;20284;-82
2021/01/31 16:38:00;;;;;;;19.10;14.73;;;;;;;;;;15486265;28;20239;-83
2021/01/31 16:45:38;;;;;;;17.17;13.30;;;8.40;56.40;;;;;;15484726;28;20752;-82
2021/01/31 16:53:07;;;;;;;17.60;12.73;;;;;;;;;;15484580;28;20269;-83
2021/01/31 17:00:35;;;;;;;20.93;14.40;;;;;;;;;;15484674;28;20518;-83
2021/01/31 17:08:02;;;;;;;23.37;15.90;;;;;;;;;;15485195;28;20216;-82
2021/01/31 17:15:31;;;;;;;22.60;15.20;;;;;;;;;;15482228;28;20217;-83
2021/01/31 17:22:59;;;;;;;20.47;15.23;;;;;;;;;;15464444;28;20223;-83
2021/01/31 17:30:27;;;;;;;23.47;17.93;;;;;;;;;;15466096;28;20233;-81
2021/01/31 17:37:55;;;;;;;27.57;18.97;;;;;;;;;;15481486;28;20251;-82
2021/01/31 17:45:24;;;;;;;26.47;19.03;;;;;;;;;;15479508;28;20221;-81
2021/01/31 17:52:51;;;;;;;29.03;21.90;;;;;;;;;;15480869;28;20200;-82
2021/01/31 18:00:21;;;;;;;32.43;22.27;;;;;;;;;;15480403;28;20243;-81
2021/01/31 18:07:48;;;;;;;27.40;19.93;;;;;;;;;;15458270;28;20231;-83
2021/01/31 18:15:15;;;;;;;25.83;19.03;;;;;;;;;;15476922;28;20766;-82
2021/01/31 18:22:45;;;;;;;28.20;19.43;;;;;;;;;;15462203;28;20561;-77
2021/01/31 18:30:15;;;;;;;27.20;17.60;;;;;;;;;;15478433;28;20718;-77
2021/01/31 18:37:42;;;;;;;30.00;18.70;;;;;;;;;;15478281;28;20240;-83
2021/01/31 18:45:11;;;;;;;27.57;17.90;;;;;;;;;;15479361;28;20220;-83
2021/01/31 18:52:39;;;;;;;29.30;19.93;;;;;;;;;;15481851;28;20189;-86
2021/01/31 19:00:06;;;;;;;30.97;21.00;;;;;;;;;;15482335;28;20223;-87
2021/01/31 19:07:37;;;;;;;31.03;21.27;;;;;;;;;;15483278;28;20265;-87
2021/01/31 19:15:05;;;;;;;30.87;22.60;;;;;;;;;;15484155;28;20278;-88
2021/01/31 19:22:33;;;;;;;30.13;22.37;;;;;;;;;;15487591;28;20205;-88
2021/01/31 19:30:01;;;;;;;32.63;24.13;;;;;;;;;;15508993;28;20220;-89
2021/01/31 19:37:28;;;;;;;33.10;22.73;;;;;;;;;;15451667;28;20821;-79
2021/01/31 19:44:55;;;;;;;32.00;22.93;;;;;;;;;;15488235;28;20234;-85
2021/01/31 19:52:23;;;;;;;30.57;22.07;;;;;;;;;;15491446;28;20200;-85
2021/01/31 19:59:59;;;;;;;32.70;23.23;;;;;;;;;;15474642;28;20230;-84
2021/01/31 20:07:34;;;;;;;32.50;21.90;;;;;;;;;;15473558;28;20232;-87
2021/01/31 20:15:04;;;;;;;31.57;23.37;;;;;;;;;;15489450;28;20185;-83
2021/01/31 20:22:35;;;;;;;33.83;23.60;;;;;;;;;;15472553;28;20177;-83
2021/01/31 20:30:02;;;;;;;30.23;22.50;;;;;;;;;;15470779;28;20232;-83
2021/01/31 20:37:29;;;;;;;30.57;22.33;;;;;;;;;;15455307;28;20311;-83
2021/01/31 20:44:57;;;;;;;31.47;21.60;;;;;;;;;;15496178;28;20270;-82
2021/01/31 20:52:24;;;;;;;34.53;21.90;;;;;;;;;;15493225;28;20196;-83
2021/01/31 20:59:52;;;;;;;27.90;20.87;;;;;;;;;;15487168;28;20207;-83
2021/01/31 21:07:23;;;;;;;28.50;19.77;;;;;;;;;;15487858;28;20212;-84
2021/01/31 21:14:51;;;;;;;29.70;20.60;;;;;;;;;;15484460;28;20176;-83
2021/01/31 21:22:20;;;;;;;43.37;20.63;;;;;;;;;;15483466;28;20214;-83
2021/01/31 21:29:47;;;;;;;27.60;18.40;;;;;;;;;;15485931;28;20200;-83
2021/01/31 21:37:15;;;;;;;24.90;18.40;;;;;;;;;;15512382;28;20239;-84
2021/01/31 21:44:45;;;;;;;25.13;17.30;;;;;;;;;;15546885;28;20572;-82
2021/01/31 21:52:12;;;;;;;23.87;17.47;;;;;;;;;;15529277;28;20582;-82
2021/01/31 21:59:39;;;;;;;26.00;17.27;;;;;;;;;;15527801;28;20207;-83
2021/01/31 22:07:08;;;;;;;25.77;17.67;;;;;;;;;;15542771;28;20231;-84
2021/01/31 22:14:35;;;;;;;22.57;15.70;;;;;;;;;;15542114;28;20545;-86
2021/01/31 22:22:03;;;;;;;22.43;16.47;;;;;;;;;;15524790;28;20280;-86
2021/01/31 22:29:32;;;;;;;23.30;16.13;;;;;;;;;;15508439;28;20238;-89
2021/01/31 22:37:00;;;;;;;25.80;18.07;;;;;;;;;;15527432;28;20508;-88
2021/01/31 22:44:27;;;;;;;24.50;18.00;;;;;;;;;;15526620;28;20191;-89
2021/01/31 22:51:55;;;;;;;24.97;18.10;;;;;;;;;;15511462;28;20223;-87
2021/01/31 22:59:22;;;;;;;22.93;17.47;;;;;;;;;;15526472;28;20188;-89
2021/01/31 23:06:49;;;;;;;24.77;17.63;;;;;;;;;;15507966;28;20236;-88
2021/01/31 23:14:18;;;;;;;23.80;17.50;;;;;;;;;;15514623;28;20211;-89
2021/01/31 23:21:47;;;;;;;24.40;16.77;;;;;;;;;;15559344;28;20231;-89
2021/01/31 23:29:14;;;;;;;24.37;17.77;;;;;;;;;;15546754;28;20219;-87
2021/01/31 23:36:42;;;;;;;24.93;17.80;;;;;;;;;;15561781;28;20717;-90
2021/01/31 23:44:11;;;;;;;29.87;18.13;;;;;;;;;;15535793;28;20695;-83
2021/01/31 23:51:38;;;;;;;39.10;18.27;;;;;;;;;;15550799;28;20846;-81
2021/01/31 23:59:07;;;;;;;22.13;16.00;;;;;;;;;;15533167;28;20211;-82
